Time;durP1;ratioP1;P1;durP2;ratioP2;P2;SDS_P1;SDS_P2;PMS_P1;PMS_P2;Temp;Humidity;BMP_temperature;BMP_pressure;BME280_temperature;BME280_humidity;BME280_pressure;Samples;Min_cycle;Max_cycle;Signal;HPM_P1;HPM_P2
2022/01/24 00:01:46;;;;;;;20.90;8.23;;;1.60;99.70;;;;;;5052947;28;20475;-67
2022/01/24 00:04:14;;;;;;;20.43;8.97;;;1.50;99.70;;;;;;5052819;28;20448;-67
2022/01/24 00:06:41;;;;;;;18.27;9.03;;;1.40;99.70;;;;;;5052880;28;21001;-67
2022/01/24 00:09:09;;;;;;;22.10;8.70;;;1.40;99.70;;;;;;5051675;28;20447;-67
2022/01/24 00:11:43;;;;;;;19.43;8.83;;;1.30;99.70;;;;;;5052688;28;20843;-67
2022/01/24 00:14:45;;;;;;;19.60;8.77;;;1.40;99.70;;;;;;5052660;28;20455;-67
2022/01/24 00:17:09;;;;;;;20.13;8.20;;;1.70;99.70;;;;;;5052657;28;20436;-67
2022/01/24 00:27:52;;;;;;;18.53;7.77;;;2.10;99.70;;;;;;5052203;28;20542;-67
2022/01/24 00:30:19;;;;;;;20.27;8.20;;;2.10;99.70;;;;;;5052420;28;20470;-67
2022/01/24 00:32:46;;;;;;;21.63;8.63;;;2.20;99.70;;;;;;5052311;28;20459;-67
2022/01/24 00:35:15;;;;;;;20.43;8.93;;;1.90;99.70;;;;;;5052389;28;20823;-67
2022/01/24 00:37:42;;;;;;;21.10;9.00;;;1.70;99.70;;;;;;5052068;28;20451;-66
2022/01/24 00:40:10;;;;;;;20.03;8.30;;;1.50;99.70;;;;;;5050916;28;20475;-67
2022/01/24 00:42:48;;;;;;;22.17;8.63;;;1.40;99.70;;;;;;5051988;28;20467;-67
2022/01/24 00:45:24;;;;;;;19.33;8.10;;;1.30;99.70;;;;;;5052091;28;20447;-67
2022/01/24 00:48:09;;;;;;;21.67;8.47;;;1.20;99.70;;;;;;5051607;28;20443;-67
2022/01/24 00:53:37;;;;;;;21.17;8.13;;;1.10;99.70;;;;;;5052087;28;20918;-67
2022/01/24 00:56:05;;;;;;;20.80;8.70;;;1.00;99.70;;;;;;5051989;28;20529;-67
2022/01/24 00:58:32;;;;;;;23.63;9.10;;;0.90;99.70;;;;;;5051512;28;20444;-67
2022/01/24 01:00:58;;;;;;;21.23;8.33;;;0.90;99.70;;;;;;5051708;28;20459;-67
2022/01/24 01:03:25;;;;;;;23.40;8.70;;;0.90;99.70;;;;;;5051852;28;20451;-67
2022/01/24 01:06:06;;;;;;;24.57;8.40;;;0.90;99.70;;;;;;5051666;28;20486;-67
2022/01/24 01:19:31;;;;;;;20.97;9.07;;;0.80;99.70;;;;;;5051077;28;20431;-68
2022/01/24 01:21:59;;;;;;;20.67;9.33;;;0.80;99.70;;;;;;5051324;28;20467;-67
2022/01/24 01:24:27;;;;;;;19.17;8.60;;;0.70;99.70;;;;;;5051393;28;20440;-67
2022/01/24 01:27:00;;;;;;;19.70;8.90;;;0.70;99.70;;;;;;5051324;28;20483;-67
2022/01/24 01:29:30;;;;;;;26.73;9.10;;;0.70;99.70;;;;;;5050945;28;20447;-67
2022/01/24 01:32:08;;;;;;;18.30;8.27;;;0.60;99.70;;;;;;5051305;28;20483;-67
2022/01/24 01:34:56;;;;;;;18.90;8.80;;;0.70;99.70;;;;;;5051268;28;20454;-67
2022/01/24 01:37:47;;;;;;;25.27;8.90;;;0.60;99.70;;;;;;5051043;28;20975;-67
2022/01/24 01:54:15;;;;;;;19.80;8.10;;;0.70;99.70;;;;;;5051095;28;20423;-67
2022/01/24 01:56:43;;;;;;;19.13;7.83;;;0.70;99.70;;;;;;5050937;28;20449;-67
2022/01/24 01:59:09;;;;;;;21.70;8.33;;;0.60;99.70;;;;;;5050586;28;21020;-67
2022/01/24 02:01:38;;;;;;;20.53;8.20;;;0.50;99.70;;;;;;5050659;28;20540;-67
2022/01/24 02:04:05;;;;;;;19.80;8.20;;;0.50;99.70;;;;;;5050881;28;20439;-68
2022/01/24 02:06:32;;;;;;;18.20;7.83;;;0.50;99.70;;;;;;5050690;28;20483;-67
2022/01/24 02:09:00;;;;;;;19.10;8.00;;;0.50;99.70;;;;;;5049846;28;20451;-67
2022/01/24 02:11:28;;;;;;;21.23;8.77;;;0.50;99.70;;;;;;5050722;28;20465;-67
2022/01/24 02:13:58;;;;;;;19.43;8.37;;;0.50;99.70;;;;;;5050962;28;20455;-67
2022/01/24 02:16:33;;;;;;;20.60;8.97;;;0.50;99.70;;;;;;5050842;28;20466;-67
2022/01/24 02:19:19;;;;;;;20.93;9.13;;;0.50;99.70;;;;;;5050506;28;20458;-67
2022/01/24 02:22:04;;;;;;;17.90;8.50;;;0.50;99.70;;;;;;5050532;28;20464;-67
2022/01/24 02:24:40;;;;;;;18.57;8.47;;;0.40;99.70;;;;;;5050701;28;20456;-67
2022/01/24 02:27:07;;;;;;;16.73;7.60;;;0.40;99.70;;;;;;5050609;28;20548;-68
2022/01/24 02:29:47;;;;;;;19.23;8.60;;;0.40;99.70;;;;;;5050226;28;20466;-67
2022/01/24 02:32:14;;;;;;;16.60;8.13;;;0.30;99.70;;;;;;5050563;28;20555;-67
2022/01/24 02:34:44;;;;;;;18.30;8.43;;;0.30;99.70;;;;;;5050560;28;20451;-67
2022/01/24 02:37:14;;;;;;;18.80;8.83;;;0.20;99.70;;;;;;5050534;28;20451;-67
2022/01/24 02:39:47;;;;;;;19.60;8.30;;;0.20;99.70;;;;;;5050321;28;20447;-67
2022/01/24 02:53:23;;;;;;;18.60;8.53;;;0.20;99.70;;;;;;5044451;28;20489;-68
2022/01/24 02:55:50;;;;;;;18.27;8.40;;;0.10;99.70;;;;;;5050307;28;20439;-67
2022/01/24 02:58:17;;;;;;;17.10;7.90;;;0.10;99.70;;;;;;5049969;28;20443;-68
2022/01/24 03:00:46;;;;;;;17.20;8.30;;;0.10;99.70;;;;;;5050315;28;20444;-68
2022/01/24 03:03:13;;;;;;;19.10;8.50;;;0.10;99.70;;;;;;5051203;28;20528;-68
2022/01/24 03:05:40;;;;;;;20.20;8.23;;;0.10;99.70;;;;;;5054092;28;20447;-68
2022/01/24 03:08:07;;;;;;;18.43;7.80;;;0.10;99.70;;;;;;5053570;28;20474;-67
2022/01/24 03:10:39;;;;;;;20.40;9.10;;;0.20;99.70;;;;;;5053131;28;20447;-67
2022/01/24 03:13:19;;;;;;;19.57;8.33;;;0.20;99.70;;;;;;5053924;28;20459;-67
2022/01/24 03:15:47;;;;;;;20.03;8.50;;;0.10;99.70;;;;;;5054034;28;20451;-67
2022/01/24 03:18:13;;;;;;;17.53;7.40;;;0.20;99.70;;;;;;5053306;28;20992;-67
2022/01/24 03:20:41;;;;;;;19.73;8.60;;;0.10;99.70;;;;;;5053806;28;20493;-68
2022/01/24 03:23:08;;;;;;;17.57;8.00;;;0.10;99.70;;;;;;5053811;28;20444;-67
2022/01/24 03:25:36;;;;;;;19.17;8.60;;;0.00;99.70;;;;;;5053708;28;20447;-67
2022/01/24 03:28:04;;;;;;;20.17;8.07;;;0.00;99.70;;;;;;5052976;28;20506;-67
2022/01/24 03:30:32;;;;;;;19.97;7.63;;;0.10;99.70;;;;;;5053611;28;20538;-67
2022/01/24 03:32:59;;;;;;;20.80;8.50;;;0.10;99.70;;;;;;5053330;28;20470;-67
2022/01/24 03:35:26;;;;;;;19.57;8.77;;;0.00;99.70;;;;;;5053572;28;20439;-67
2022/01/24 03:37:53;;;;;;;18.03;8.20;;;-0.10;99.70;;;;;;5052988;28;20440;-67
2022/01/24 03:40:20;;;;;;;18.30;8.60;;;-0.10;99.70;;;;;;5053392;28;20451;-67
2022/01/24 03:42:48;;;;;;;23.60;9.20;;;-0.10;99.70;;;;;;5053187;28;20479;-67
2022/01/24 03:45:16;;;;;;;23.27;9.03;;;-0.10;99.70;;;;;;5053285;28;20451;-67
2022/01/24 03:47:56;;;;;;;24.60;9.83;;;-0.10;99.70;;;;;;5052941;28;20475;-67
2022/01/24 03:50:23;;;;;;;21.77;9.57;;;0.00;99.70;;;;;;5053246;28;20448;-67
2022/01/24 03:52:51;;;;;;;21.07;9.43;;;-0.20;99.70;;;;;;5053012;28;20464;-67
2022/01/24 03:55:17;;;;;;;24.33;10.00;;;-0.20;99.70;;;;;;5053248;28;20824;-67
2022/01/24 03:57:44;;;;;;;22.47;9.30;;;-0.10;99.70;;;;;;5052871;28;20793;-67
2022/01/24 04:00:13;;;;;;;23.03;9.20;;;-0.10;99.70;;;;;;5052921;28;20443;-67
2022/01/24 04:02:41;;;;;;;27.00;10.17;;;-0.20;99.70;;;;;;5052904;28;20847;-67
2022/01/24 04:05:08;;;;;;;23.87;10.43;;;-0.30;99.70;;;;;;5053098;28;20454;-67
2022/01/24 04:07:35;;;;;;;26.27;10.20;;;-0.10;99.70;;;;;;5052714;28;20479;-67
2022/01/24 04:10:06;;;;;;;22.03;9.30;;;0.00;99.70;;;;;;5052152;28;20446;-67
2022/01/24 04:12:35;;;;;;;22.97;9.63;;;-0.10;99.70;;;;;;5052658;28;20495;-67
2022/01/24 04:15:13;;;;;;;22.00;8.97;;;-0.10;99.70;;;;;;5052586;28;20543;-67
2022/01/24 04:17:44;;;;;;;21.30;9.80;;;-0.20;99.70;;;;;;5052553;28;20444;-67
2022/01/24 04:22:59;;;;;;;25.67;9.57;;;-0.30;99.70;;;;;;5052656;28;20426;-67
2022/01/24 04:25:26;;;;;;;25.20;9.87;;;-0.30;99.70;;;;;;5052606;28;20974;-67
2022/01/24 04:27:54;;;;;;;25.63;10.10;;;-0.30;99.70;;;;;;5051962;28;20479;-67
2022/01/24 04:30:22;;;;;;;24.03;9.70;;;-0.30;99.70;;;;;;5052467;28;20942;-67
2022/01/24 04:32:50;;;;;;;22.53;9.03;;;-0.30;99.70;;;;;;5052288;28;20482;-67
2022/01/24 04:35:17;;;;;;;23.27;9.90;;;0.00;99.70;;;;;;5052454;28;20911;-67
2022/01/24 04:37:44;;;;;;;21.40;9.60;;;0.20;99.70;;;;;;5052167;28;20964;-67
2022/01/24 04:40:11;;;;;;;28.10;10.03;;;0.00;99.70;;;;;;5052334;28;20448;-67
2022/01/24 04:42:46;;;;;;;27.80;10.60;;;-0.20;99.70;;;;;;5072736;22;20498;-67
2022/01/24 04:45:32;;;;;;;23.13;9.83;;;-0.20;99.70;;;;;;5071490;28;20449;-65
2022/01/24 04:51:00;;;;;;;29.10;12.73;;;-0.30;99.70;;;;;;5072129;28;20510;-68
2022/01/24 04:56:25;;;;;;;26.67;10.57;;;-0.40;99.70;;;;;;5088693;28;20940;-67
2022/01/24 04:58:52;;;;;;;28.03;10.50;;;-0.40;99.70;;;;;;5088112;28;20438;-66
2022/01/24 05:01:18;;;;;;;27.77;11.60;;;-0.30;99.70;;;;;;5088475;28;20504;-69
2022/01/24 05:03:45;;;;;;;28.43;11.23;;;-0.40;99.70;;;;;;5088365;28;20937;-67
2022/01/24 05:06:12;;;;;;;24.57;10.10;;;-0.40;99.70;;;;;;5088413;28;20941;-67
2022/01/24 05:08:38;;;;;;;26.10;11.57;;;-0.30;99.70;;;;;;5087504;28;20482;-67
2022/01/24 05:11:09;;;;;;;24.13;10.87;;;-0.40;99.70;;;;;;5088283;28;20442;-67
2022/01/24 05:24:45;;;;;;;29.60;10.83;;;-0.40;99.70;;;;;;5088053;28;21005;-66
2022/01/24 05:27:12;;;;;;;27.37;10.60;;;-0.30;99.70;;;;;;5088132;28;20830;-67
2022/01/24 05:29:40;;;;;;;25.73;10.60;;;-0.40;99.70;;;;;;5087614;28;20845;-67
2022/01/24 05:32:08;;;;;;;24.57;10.50;;;-0.40;99.70;;;;;;5088026;28;20462;-67
2022/01/24 05:34:35;;;;;;;24.53;10.33;;;-0.50;99.70;;;;;;5087853;28;20572;-67
2022/01/24 05:37:02;;;;;;;25.20;10.80;;;-0.40;99.70;;;;;;5087876;28;20442;-67
2022/01/24 05:39:28;;;;;;;26.33;10.87;;;-0.40;99.70;;;;;;5087481;28;20472;-67
2022/01/24 05:41:55;;;;;;;25.07;10.17;;;-0.30;99.70;;;;;;5082683;28;20866;-68
2022/01/24 05:44:22;;;;;;;26.70;10.87;;;-0.30;99.70;;;;;;5081384;28;20459;-67
2022/01/24 05:46:50;;;;;;;24.90;11.00;;;-0.30;99.70;;;;;;5084304;28;20453;-67
2022/01/24 05:49:16;;;;;;;26.53;9.80;;;-0.30;99.70;;;;;;5073888;28;20439;-67
2022/01/24 05:51:43;;;;;;;26.30;10.10;;;-0.30;99.70;;;;;;5067385;28;20477;-67
2022/01/24 05:54:11;;;;;;;25.60;10.50;;;0.30;99.70;;;;;;5077912;28;20455;-67
2022/01/24 05:56:38;;;;;;;25.20;10.50;;;0.00;99.70;;;;;;5079057;28;20544;-67
2022/01/24 05:59:05;;;;;;;24.67;10.97;;;0.60;99.70;;;;;;5072351;28;20504;-67
2022/01/24 06:01:31;;;;;;;27.23;11.40;;;0.50;99.70;;;;;;5078939;28;20465;-65
2022/01/24 06:03:59;;;;;;;23.57;10.10;;;0.20;99.70;;;;;;5067718;28;20958;-63
2022/01/24 06:06:26;;;;;;;23.57;9.93;;;0.10;99.70;;;;;;5067883;28;20870;-68
2022/01/24 06:08:53;;;;;;;27.53;10.30;;;0.00;99.70;;;;;;5070200;28;20435;-67
2022/01/24 06:11:20;;;;;;;23.37;10.60;;;-0.10;99.70;;;;;;5069915;28;20454;-66
2022/01/24 06:13:50;;;;;;;28.53;10.93;;;-0.10;99.70;;;;;;5070334;28;20533;-68
2022/01/24 06:16:17;;;;;;;23.73;10.70;;;-0.20;99.70;;;;;;5069805;28;20483;-69
2022/01/24 06:18:44;;;;;;;24.83;10.50;;;-0.10;99.70;;;;;;5069084;28;20550;-67
2022/01/24 06:21:12;;;;;;;28.40;11.50;;;-0.10;99.70;;;;;;5070759;28;20496;-66
2022/01/24 06:23:39;;;;;;;24.50;10.70;;;-0.10;99.70;;;;;;5071267;28;20524;-66
2022/01/24 06:26:05;;;;;;;25.20;10.80;;;0.00;99.70;;;;;;5072672;28;20447;-67
2022/01/24 06:28:32;;;;;;;25.27;10.83;;;0.00;99.70;;;;;;5072938;28;20443;-66
2022/01/24 06:30:59;;;;;;;28.20;11.60;;;0.30;99.70;;;;;;5073273;28;20451;-66
2022/01/24 06:33:26;;;;;;;27.37;11.73;;;0.20;99.70;;;;;;5073172;28;20842;-66
2022/01/24 06:35:53;;;;;;;28.60;11.50;;;0.40;99.70;;;;;;5072944;28;20483;-66
2022/01/24 06:38:21;;;;;;;31.87;11.93;;;0.60;99.70;;;;;;5072775;28;20447;-67
2022/01/24 06:40:48;;;;;;;32.50;12.93;;;0.50;99.70;;;;;;5072767;28;20447;-66
2022/01/24 06:43:15;;;;;;;29.23;12.90;;;0.50;99.70;;;;;;5072677;28;20888;-65
2022/01/24 06:45:41;;;;;;;35.53;12.97;;;0.60;99.70;;;;;;5072978;28;20815;-66
2022/01/24 06:48:08;;;;;;;32.40;13.83;;;0.50;99.70;;;;;;5072718;28;20442;-66
2022/01/24 06:50:35;;;;;;;36.40;14.73;;;0.60;99.70;;;;;;5073009;28;20505;-66
2022/01/24 06:53:02;;;;;;;33.63;14.10;;;0.60;99.70;;;;;;5072854;28;20851;-66
2022/01/24 06:55:30;;;;;;;34.20;13.70;;;0.70;99.70;;;;;;5072146;28;20483;-66
2022/01/24 06:57:57;;;;;;;35.17;14.20;;;0.70;99.70;;;;;;5072382;28;20971;-66
2022/01/24 07:00:26;;;;;;;37.63;14.57;;;0.70;99.70;;;;;;5072662;28;20447;-67
2022/01/24 07:02:53;;;;;;;30.30;12.63;;;0.70;99.70;;;;;;5072748;28;20557;-66
2022/01/24 07:05:20;;;;;;;34.77;14.13;;;0.80;99.70;;;;;;5072710;28;20861;-66
2022/01/24 07:07:46;;;;;;;28.80;13.00;;;0.90;99.70;;;;;;5072175;28;20442;-64
2022/01/24 07:10:13;;;;;;;29.93;12.90;;;0.80;99.70;;;;;;5072582;28;20446;-66
2022/01/24 07:12:41;;;;;;;35.87;13.90;;;0.80;99.70;;;;;;5072432;28;20524;-66
2022/01/24 07:15:12;;;;;;;37.83;15.50;;;0.90;99.70;;;;;;5072516;28;20478;-66
2022/01/24 07:18:00;;;;;;;36.77;15.00;;;0.90;99.70;;;;;;5071751;28;20538;-66
2022/01/24 07:20:26;;;;;;;34.37;14.70;;;1.00;99.70;;;;;;5072394;28;20479;-66
2022/01/24 07:22:53;;;;;;;34.17;15.30;;;1.10;99.70;;;;;;5072291;28;20474;-67
2022/01/24 07:25:21;;;;;;;35.10;13.87;;;1.10;99.70;;;;;;5072332;28;20819;-66
2022/01/24 07:27:49;;;;;;;32.73;14.33;;;1.20;99.70;;;;;;5071760;28;20474;-66
2022/01/24 07:30:16;;;;;;;34.77;14.27;;;1.20;99.70;;;;;;5072105;28;20442;-66
2022/01/24 07:32:43;;;;;;;33.93;14.30;;;1.20;99.70;;;;;;5072187;28;20839;-66
2022/01/24 07:35:10;;;;;;;30.30;12.97;;;1.30;99.70;;;;;;5072069;28;20560;-67
2022/01/24 07:37:37;;;;;;;34.30;14.37;;;1.40;99.70;;;;;;5072110;28;20934;-66
2022/01/24 07:40:06;;;;;;;35.43;13.90;;;1.40;99.70;;;;;;5071360;28;20451;-66
2022/01/24 07:42:52;;;;;;;32.73;12.90;;;1.60;99.70;;;;;;5071373;28;20462;-66
2022/01/24 07:45:23;;;;;;;34.80;13.70;;;1.70;99.70;;;;;;5070046;28;20447;-66
2022/01/24 07:47:50;;;;;;;26.67;12.30;;;1.60;99.70;;;;;;5071432;28;20874;-66
2022/01/24 07:50:19;;;;;;;34.87;13.63;;;1.60;99.70;;;;;;5071782;28;20443;-66
2022/01/24 07:52:46;;;;;;;29.97;12.53;;;1.60;99.70;;;;;;5071732;28;20467;-66
2022/01/24 07:55:13;;;;;;;33.03;14.10;;;1.50;99.70;;;;;;5070388;28;20485;-67
2022/01/24 07:57:40;;;;;;;36.60;14.23;;;1.80;99.70;;;;;;5071443;28;20517;-66
2022/01/24 08:00:10;;;;;;;34.53;13.60;;;1.70;99.70;;;;;;5069693;28;20447;-66
2022/01/24 08:02:39;;;;;;;32.93;14.30;;;1.70;99.70;;;;;;5070736;28;20474;-68
2022/01/24 08:05:06;;;;;;;32.27;13.60;;;1.70;99.70;;;;;;5071511;28;20872;-67
2022/01/24 08:07:33;;;;;;;36.53;13.90;;;2.10;99.70;;;;;;5071532;28;20500;-66
2022/01/24 08:10:00;;;;;;;31.47;12.70;;;2.00;99.70;;;;;;5071065;28;20956;-66
2022/01/24 08:12:26;;;;;;;32.63;13.70;;;1.90;99.70;;;;;;5071197;28;20463;-66
2022/01/24 08:14:53;;;;;;;31.07;12.90;;;2.10;99.70;;;;;;5071294;28;20937;-66
2022/01/24 08:17:20;;;;;;;36.20;13.70;;;2.00;99.70;;;;;;5070968;28;20952;-67
2022/01/24 08:19:48;;;;;;;32.13;13.70;;;2.10;99.70;;;;;;5071124;28;20442;-66
2022/01/24 08:22:15;;;;;;;30.40;13.33;;;2.10;99.70;;;;;;5071038;28;20458;-66
2022/01/24 08:24:41;;;;;;;30.20;12.80;;;2.10;99.70;;;;;;5071360;28;20508;-66
2022/01/24 08:27:08;;;;;;;30.60;12.97;;;2.10;99.70;;;;;;5071052;28;20851;-66
2022/01/24 08:29:35;;;;;;;32.60;12.37;;;2.30;99.70;;;;;;5070656;28;20439;-66
2022/01/24 08:32:02;;;;;;;29.27;13.07;;;2.30;99.70;;;;;;5070765;28;20463;-66
2022/01/24 08:34:29;;;;;;;28.20;12.40;;;2.30;99.70;;;;;;5071137;28;20453;-67
2022/01/24 08:36:57;;;;;;;27.23;11.47;;;2.30;99.70;;;;;;5070913;28;20481;-67
2022/01/24 08:39:24;;;;;;;37.57;13.00;;;2.30;99.70;;;;;;5070000;28;20446;-66
2022/01/24 08:42:01;;;;;;;28.80;12.30;;;2.50;99.70;;;;;;5070412;28;20466;-67
2022/01/24 08:45:43;;;;;;;29.17;13.27;;;2.70;99.70;;;;;;5070616;28;20446;-66
2022/01/24 08:47:22;;;;;;;29.43;12.77;;;2.80;99.70;;;;;;5070864;28;20449;-66
2022/01/24 08:49:48;;;;;;;27.33;11.80;;;2.90;99.70;;;;;;5070682;28;20442;-66
2022/01/24 08:52:16;;;;;;;32.33;12.47;;;3.00;99.70;;;;;;5070804;28;20469;-66
2022/01/24 08:54:43;;;;;;;31.87;13.20;;;3.10;99.70;;;;;;5071014;28;20462;-67
2022/01/24 08:57:10;;;;;;;30.47;12.37;;;3.10;99.70;;;;;;5070118;28;20574;-66
2022/01/24 08:59:38;;;;;;;29.30;12.90;;;3.20;99.70;;;;;;5070133;28;20492;-67
2022/01/24 09:02:05;;;;;;;28.37;12.63;;;3.00;99.70;;;;;;5070588;28;20478;-67
2022/01/24 09:04:32;;;;;;;26.90;12.03;;;3.10;99.70;;;;;;5070951;28;20445;-66
2022/01/24 09:07:03;;;;;;;27.87;12.40;;;3.10;99.70;;;;;;5070655;28;20465;-67
2022/01/24 09:09:34;;;;;;;30.80;12.37;;;3.10;99.70;;;;;;5070508;28;20472;-67
2022/01/24 09:12:01;;;;;;;28.13;12.70;;;3.00;99.70;;;;;;5070550;28;20852;-66
2022/01/24 09:14:27;;;;;;;31.37;12.23;;;2.80;99.70;;;;;;5070890;28;20447;-67
2022/01/24 09:16:54;;;;;;;30.10;12.80;;;2.90;99.70;;;;;;5070560;28;20475;-67
2022/01/24 09:19:21;;;;;;;36.30;13.50;;;2.90;99.70;;;;;;5070303;28;20450;-66
2022/01/24 09:21:48;;;;;;;27.60;12.20;;;3.00;99.70;;;;;;5070476;28;20459;-66
2022/01/24 09:24:15;;;;;;;30.30;12.90;;;3.00;99.70;;;;;;5070778;28;20846;-67
2022/01/24 09:26:43;;;;;;;29.60;12.90;;;3.00;99.70;;;;;;5070626;28;20442;-66
2022/01/24 09:29:10;;;;;;;30.93;12.90;;;3.00;99.70;;;;;;5070318;28;20442;-66
2022/01/24 09:31:37;;;;;;;27.13;12.67;;;3.10;99.70;;;;;;5070563;28;20467;-67
2022/01/24 09:34:03;;;;;;;26.40;12.33;;;3.10;99.70;;;;;;5070642;28;20442;-66
2022/01/24 09:36:30;;;;;;;25.17;11.23;;;3.10;99.70;;;;;;5070059;28;20859;-66
2022/01/24 09:38:57;;;;;;;24.37;11.10;;;3.10;99.70;;;;;;5068577;28;20446;-67
2022/01/24 09:41:24;;;;;;;28.10;11.80;;;3.10;99.70;;;;;;5071360;28;20498;-66
2022/01/24 09:43:52;;;;;;;29.73;11.43;;;3.10;99.70;;;;;;5074294;28;20809;-66
2022/01/24 09:46:18;;;;;;;36.27;14.77;;;3.10;99.70;;;;;;5074215;28;20949;-66
2022/01/24 09:48:45;;;;;;;28.50;11.27;;;3.30;99.70;;;;;;5072919;28;20454;-66
2022/01/24 09:51:12;;;;;;;28.10;11.23;;;3.30;99.70;;;;;;5074026;28;20442;-66
2022/01/24 09:53:39;;;;;;;50.20;17.17;;;3.40;99.70;;;;;;5073967;28;20443;-66
2022/01/24 09:56:07;;;;;;;34.57;11.87;;;3.40;99.70;;;;;;5073912;28;20482;-66
2022/01/24 09:58:36;;;;;;;23.97;10.03;;;3.50;99.70;;;;;;5073444;28;20965;-68
2022/01/24 10:01:07;;;;;;;18.53;8.93;;;3.50;99.70;;;;;;5074025;28;20442;-66
2022/01/24 10:03:34;;;;;;;21.07;9.20;;;3.60;99.70;;;;;;5073889;28;20449;-66
2022/01/24 10:06:01;;;;;;;22.60;9.80;;;3.60;99.70;;;;;;5074006;28;20443;-66
2022/01/24 10:08:29;;;;;;;49.70;15.97;;;3.70;99.70;;;;;;5073388;28;20451;-67
2022/01/24 10:10:59;;;;;;;21.17;9.50;;;3.70;99.70;;;;;;5073828;28;20442;-66
2022/01/24 10:16:25;;;;;;;17.07;8.27;;;3.90;99.70;;;;;;5073637;28;21046;-66
2022/01/24 10:19:02;;;;;;;16.63;7.90;;;3.90;99.70;;;;;;5072498;28;20515;-66
2022/01/24 10:21:29;;;;;;;16.63;8.60;;;3.90;99.70;;;;;;5073524;28;20470;-67
2022/01/24 10:23:56;;;;;;;19.00;7.67;;;3.90;99.70;;;;;;5073512;28;20447;-66
2022/01/24 10:26:25;;;;;;;17.37;7.73;;;4.00;99.70;;;;;;5073566;28;20439;-66
2022/01/24 10:28:52;;;;;;;17.80;8.07;;;3.90;99.70;;;;;;5070892;28;20500;-66
2022/01/24 10:31:24;;;;;;;19.43;8.67;;;4.00;99.70;;;;;;5054196;28;20478;-66
2022/01/24 10:34:05;;;;;;;17.83;7.93;;;4.10;99.70;;;;;;5062111;28;20964;-66
2022/01/24 10:36:40;;;;;;;17.77;8.00;;;4.10;99.70;;;;;;5052538;28;20521;-66
2022/01/24 10:39:31;;;;;;;21.83;8.83;;;4.10;99.70;;;;;;5051499;28;20447;-67
2022/01/24 10:45:12;;;;;;;19.17;7.63;;;4.40;99.70;;;;;;5021330;28;20434;-67
2022/01/24 10:47:45;;;;;;;15.50;7.20;;;4.50;99.70;;;;;;5059559;28;20514;-66
2022/01/24 10:50:20;;;;;;;17.30;7.57;;;4.40;99.70;;;;;;5060753;28;20444;-67
2022/01/24 10:52:46;;;;;;;17.60;7.97;;;4.40;99.70;;;;;;5060523;28;20453;-67
2022/01/24 10:55:16;;;;;;;20.70;8.10;;;4.50;99.70;;;;;;5060805;28;20446;-68
2022/01/24 10:57:44;;;;;;;17.57;7.27;;;4.50;99.70;;;;;;5062921;28;20479;-67
2022/01/24 11:00:14;;;;;;;14.00;6.10;;;4.60;99.70;;;;;;5088652;22;20877;-66
2022/01/24 11:02:46;;;;;;;15.20;6.63;;;4.60;99.70;;;;;;5015271;28;20952;-66
2022/01/24 11:05:23;;;;;;;15.30;6.97;;;4.70;99.70;;;;;;5014319;28;20461;-66
2022/01/24 11:07:56;;;;;;;12.97;6.00;;;4.80;99.70;;;;;;5014762;28;20450;-66
2022/01/24 11:10:24;;;;;;;19.57;7.07;;;4.80;99.70;;;;;;5014060;28;21027;-66
2022/01/24 11:12:51;;;;;;;15.13;6.67;;;4.90;99.70;;;;;;5015121;28;20963;-66
2022/01/24 11:15:19;;;;;;;16.33;5.87;;;4.90;99.70;;;;;;5013892;28;20870;-67
2022/01/24 11:17:47;;;;;;;12.33;5.83;;;5.00;99.70;;;;;;5015013;28;20485;-66
2022/01/24 11:20:18;;;;;;;19.23;8.00;;;4.90;99.70;;;;;;5013042;28;20469;-66
2022/01/24 11:22:49;;;;;;;16.07;7.03;;;5.00;99.70;;;;;;5014596;28;20450;-66
2022/01/24 11:25:16;;;;;;;11.40;5.90;;;5.00;99.70;;;;;;5013836;28;20449;-66
2022/01/24 11:27:47;;;;;;;12.83;5.17;;;5.00;99.70;;;;;;5014663;28;20441;-66
2022/01/24 11:30:16;;;;;;;10.10;5.33;;;5.10;99.70;;;;;;5023352;28;20507;-66
2022/01/24 11:32:49;;;;;;;11.27;5.00;;;5.10;99.70;;;;;;5028890;28;20441;-67
2022/01/24 11:35:30;;;;;;;13.40;5.00;;;5.10;99.70;;;;;;5012967;28;20450;-66
2022/01/24 11:37:58;;;;;;;12.07;5.60;;;5.10;99.70;;;;;;5029717;28;20857;-66
2022/01/24 11:40:28;;;;;;;11.60;5.47;;;5.10;99.70;;;;;;5029466;28;20559;-66
2022/01/24 11:42:55;;;;;;;11.93;5.43;;;5.10;99.70;;;;;;5029255;28;20459;-66
2022/01/24 11:45:43;;;;;;;13.20;5.63;;;5.10;99.70;;;;;;5030301;28;20444;-66
2022/01/24 11:48:21;;;;;;;9.00;4.90;;;5.20;99.70;;;;;;5002740;28;20457;-66
2022/01/24 11:51:00;;;;;;;11.33;4.80;;;5.30;99.70;;;;;;5014491;28;20476;-66
2022/01/24 11:53:30;;;;;;;11.93;5.00;;;5.40;99.70;;;;;;5013251;28;20449;-66
2022/01/24 11:55:57;;;;;;;11.53;5.20;;;5.30;99.70;;;;;;5014113;28;20457;-66
2022/01/24 11:58:28;;;;;;;12.00;5.10;;;5.30;99.70;;;;;;5011903;28;20489;-66
2022/01/24 12:00:57;;;;;;;15.80;4.77;;;5.40;99.70;;;;;;5014500;28;21196;-66
2022/01/24 12:03:27;;;;;;;10.47;4.70;;;5.30;99.70;;;;;;5029914;28;20817;-66
2022/01/24 12:05:56;;;;;;;10.17;4.97;;;5.40;99.70;;;;;;5021627;28;20439;-66
2022/01/24 12:08:32;;;;;;;10.30;5.10;;;5.40;99.70;;;;;;5004003;28;20445;-66
2022/01/24 12:11:14;;;;;;;12.37;5.67;;;5.50;99.70;;;;;;5014005;28;20488;-65
2022/01/24 12:13:43;;;;;;;14.03;5.40;;;5.50;99.70;;;;;;5013138;28;20446;-66
2022/01/24 12:16:11;;;;;;;9.53;4.70;;;5.60;99.70;;;;;;5027461;28;20510;-67
2022/01/24 12:18:51;;;;;;;11.60;4.97;;;5.60;99.70;;;;;;5029339;28;20449;-66
2022/01/24 12:21:22;;;;;;;10.87;4.50;;;5.60;99.70;;;;;;5011923;28;20892;-64
2022/01/24 12:23:51;;;;;;;13.10;5.30;;;5.60;99.70;;;;;;5009250;28;20433;-66
2022/01/24 12:26:24;;;;;;;16.53;6.77;;;5.60;99.70;;;;;;5007546;28;20935;-66
2022/01/24 12:28:54;;;;;;;12.70;5.17;;;5.60;99.70;;;;;;5007053;28;20469;-66
2022/01/24 12:31:23;;;;;;;12.93;5.07;;;5.70;99.70;;;;;;5006970;28;20480;-66
2022/01/24 12:34:08;;;;;;;12.80;5.03;;;5.70;99.70;;;;;;5007650;28;20813;-65
2022/01/24 12:37:14;;;;;;;12.17;5.10;;;5.80;99.70;;;;;;5008280;28;20952;-66
2022/01/24 12:40:00;;;;;;;12.60;5.40;;;5.70;99.70;;;;;;5009411;28;20841;-66
2022/01/24 12:42:47;;;;;;;10.90;5.03;;;5.80;99.70;;;;;;5011385;28;20536;-65
2022/01/24 12:48:10;;;;;;;12.10;4.33;;;6.00;99.70;;;;;;5010981;28;20580;-65
2022/01/24 12:50:42;;;;;;;17.30;7.23;;;5.90;99.70;;;;;;5010949;28;20469;-65
2022/01/24 12:53:13;;;;;;;14.10;5.77;;;6.00;99.70;;;;;;5011294;28;20515;-65
2022/01/24 12:55:40;;;;;;;11.73;4.60;;;6.00;99.70;;;;;;5011166;28;20507;-66
2022/01/24 12:58:07;;;;;;;11.70;4.30;;;6.00;99.70;;;;;;5010949;28;20745;-66
2022/01/24 13:00:34;;;;;;;11.00;5.00;;;5.90;99.70;;;;;;5010883;28;20857;-66
2022/01/24 13:03:01;;;;;;;7.70;4.40;;;6.00;99.70;;;;;;5010890;28;20448;-66
2022/01/24 13:05:28;;;;;;;10.00;4.80;;;6.00;99.70;;;;;;5010868;28;20446;-66
2022/01/24 13:07:58;;;;;;;12.43;5.57;;;5.90;99.70;;;;;;5010157;28;20441;-66
2022/01/24 13:10:27;;;;;;;15.90;6.20;;;5.90;99.70;;;;;;5009155;28;20468;-66
2022/01/24 13:13:00;;;;;;;14.27;5.43;;;6.00;99.70;;;;;;5011748;28;20445;-65
2022/01/24 13:20:28;;;;;;;12.10;4.90;;;6.00;99.70;;;;;;5004264;28;20461;-66
2022/01/24 13:21:16;;;;;;;9.80;4.50;;;6.00;99.70;;;;;;5016627;28;20453;-66
2022/01/24 13:23:53;;;;;;;9.50;4.67;;;6.00;99.70;;;;;;5015910;28;20460;-67
2022/01/24 13:26:20;;;;;;;9.93;4.50;;;6.00;99.70;;;;;;5013941;28;20552;-66
2022/01/24 13:28:47;;;;;;;11.27;4.67;;;6.00;99.70;;;;;;5015947;28;20474;-66
2022/01/24 13:31:14;;;;;;;11.77;5.03;;;6.00;99.70;;;;;;5015611;28;20480;-66
2022/01/24 13:33:45;;;;;;;12.07;5.03;;;6.10;99.70;;;;;;5014969;28;20889;-66
2022/01/24 13:36:12;;;;;;;14.10;5.23;;;6.00;99.70;;;;;;5031120;28;20448;-67
2022/01/24 13:38:40;;;;;;;11.33;4.83;;;6.20;99.70;;;;;;5026301;28;20481;-67
2022/01/24 13:41:11;;;;;;;11.40;4.67;;;6.10;99.70;;;;;;5014229;28;20496;-67
2022/01/24 13:43:41;;;;;;;11.07;4.60;;;6.10;99.70;;;;;;5020003;28;20881;-67
2022/01/24 13:46:10;;;;;;;11.23;5.20;;;6.10;99.70;;;;;;5017698;28;20440;-67
2022/01/24 13:48:45;;;;;;;11.97;5.53;;;6.10;99.70;;;;;;5031296;28;20441;-66
2022/01/24 13:51:15;;;;;;;9.50;4.73;;;6.00;99.70;;;;;;5014037;28;20469;-67
2022/01/24 13:53:43;;;;;;;11.50;4.93;;;6.00;99.70;;;;;;5004782;28;20457;-66
2022/01/24 13:56:24;;;;;;;11.47;4.73;;;6.10;99.70;;;;;;5019881;28;20457;-66
2022/01/24 13:59:03;;;;;;;9.17;4.30;;;6.20;99.70;;;;;;5016032;28;20488;-66
2022/01/24 14:01:31;;;;;;;11.37;4.43;;;6.10;99.70;;;;;;5010671;28;20452;-67
2022/01/24 14:03:58;;;;;;;11.53;4.80;;;6.20;99.70;;;;;;5015878;28;20445;-67
2022/01/24 14:06:25;;;;;;;13.47;4.87;;;6.10;99.70;;;;;;5013756;28;20453;-67
2022/01/24 14:09:04;;;;;;;9.30;5.03;;;6.10;99.70;;;;;;5013109;28;21010;-67
2022/01/24 14:11:33;;;;;;;9.13;4.47;;;6.10;99.70;;;;;;4995539;28;20508;-67
2022/01/24 14:14:04;;;;;;;9.80;4.57;;;6.10;99.70;;;;;;5019074;28;20809;-67